sensor_id;sensor_type;location;lat;lon;timestamp;temperature;humidity
24618;DHT22;12762;51.730;5.356;2024-01-06T00:00:23;7.70;95.00
24618;DHT22;12762;51.730;5.356;2024-01-06T00:02:50;7.70;95.10
24618;DHT22;12762;51.730;5.356;2024-01-06T00:05:17;7.70;95.10
24618;DHT22;12762;51.730;5.356;2024-01-06T00:07:43;7.70;95.00
24618;DHT22;12762;51.730;5.356;2024-01-06T00:10:10;7.70;95.00
24618;DHT22;12762;51.730;5.356;2024-01-06T00:12:39;7.60;95.30
24618;DHT22;12762;51.730;5.356;2024-01-06T00:15:07;7.60;95.00
24618;DHT22;12762;51.730;5.356;2024-01-06T00:17:34;7.60;95.00
24618;DHT22;12762;51.730;5.356;2024-01-06T00:20:00;7.60;95.00
24618;DHT22;12762;51.730;5.356;2024-01-06T00:22:29;7.60;95.00
24618;DHT22;12762;51.730;5.356;2024-01-06T00:24:56;7.60;95.00
24618;DHT22;12762;51.730;5.356;2024-01-06T00:27:23;7.60;95.00
24618;DHT22;12762;51.730;5.356;2024-01-06T00:29:49;7.60;94.90
24618;DHT22;12762;51.730;5.356;2024-01-06T00:32:16;7.50;94.90
24618;DHT22;12762;51.730;5.356;2024-01-06T00:34:43;7.50;95.20
24618;DHT22;12762;51.730;5.356;2024-01-06T00:37:10;7.50;94.90
24618;DHT22;12762;51.730;5.356;2024-01-06T00:39:37;7.50;94.90
24618;DHT22;12762;51.730;5.356;2024-01-06T00:42:04;7.40;94.80
24618;DHT22;12762;51.730;5.356;2024-01-06T00:44:31;7.40;94.80
24618;DHT22;12762;51.730;5.356;2024-01-06T00:46:57;7.40;94.90
24618;DHT22;12762;51.730;5.356;2024-01-06T00:49:24;7.40;94.80
24618;DHT22;12762;51.730;5.356;2024-01-06T00:51:51;7.30;94.70
24618;DHT22;12762;51.730;5.356;2024-01-06T00:54:18;7.30;94.80
24618;DHT22;12762;51.730;5.356;2024-01-06T00:56:45;7.30;94.80
24618;DHT22;12762;51.730;5.356;2024-01-06T00:59:12;7.30;94.80
24618;DHT22;12762;51.730;5.356;2024-01-06T01:01:38;7.30;94.70
24618;DHT22;12762;51.730;5.356;2024-01-06T01:04:08;7.30;94.70
24618;DHT22;12762;51.730;5.356;2024-01-06T01:06:37;7.20;94.70
24618;DHT22;12762;51.730;5.356;2024-01-06T01:09:03;7.20;94.70
24618;DHT22;12762;51.730;5.356;2024-01-06T01:11:33;7.20;94.70
24618;DHT22;12762;51.730;5.356;2024-01-06T01:14:00;7.20;94.60
24618;DHT22;12762;51.730;5.356;2024-01-06T01:16:31;7.20;94.70
24618;DHT22;12762;51.730;5.356;2024-01-06T01:18:58;7.20;94.70
24618;DHT22;12762;51.730;5.356;2024-01-06T01:21:25;7.20;94.60
24618;DHT22;12762;51.730;5.356;2024-01-06T01:23:52;7.20;94.70
24618;DHT22;12762;51.730;5.356;2024-01-06T01:26:19;7.20;94.60
24618;DHT22;12762;51.730;5.356;2024-01-06T01:28:46;7.20;94.60
24618;DHT22;12762;51.730;5.356;2024-01-06T01:31:13;7.10;94.60
24618;DHT22;12762;51.730;5.356;2024-01-06T01:33:40;7.10;94.50
24618;DHT22;12762;51.730;5.356;2024-01-06T01:36:07;7.10;94.40
24618;DHT22;12762;51.730;5.356;2024-01-06T01:38:34;7.00;94.50
24618;DHT22;12762;51.730;5.356;2024-01-06T01:41:00;7.00;94.50
24618;DHT22;12762;51.730;5.356;2024-01-06T01:43:27;7.00;94.40
24618;DHT22;12762;51.730;5.356;2024-01-06T01:45:55;7.00;94.50
24618;DHT22;12762;51.730;5.356;2024-01-06T01:48:23;7.00;94.50
24618;DHT22;12762;51.730;5.356;2024-01-06T01:50:56;6.90;94.70
24618;DHT22;12762;51.730;5.356;2024-01-06T01:53:23;6.90;94.40
24618;DHT22;12762;51.730;5.356;2024-01-06T01:55:52;6.90;94.40
24618;DHT22;12762;51.730;5.356;2024-01-06T01:58:19;6.90;94.80
24618;DHT22;12762;51.730;5.356;2024-01-06T02:00:46;6.90;94.30
24618;DHT22;12762;51.730;5.356;2024-01-06T02:03:13;6.90;94.30
24618;DHT22;12762;51.730;5.356;2024-01-06T02:05:40;6.80;94.30
24618;DHT22;12762;51.730;5.356;2024-01-06T02:08:07;6.80;94.20
24618;DHT22;12762;51.730;5.356;2024-01-06T02:10:34;6.80;94.20
24618;DHT22;12762;51.730;5.356;2024-01-06T02:13:11;6.70;94.10
24618;DHT22;12762;51.730;5.356;2024-01-06T02:15:38;6.70;94.20
24618;DHT22;12762;51.730;5.356;2024-01-06T02:18:06;6.60;94.10
24618;DHT22;12762;51.730;5.356;2024-01-06T02:20:33;6.60;94.10
24618;DHT22;12762;51.730;5.356;2024-01-06T02:23:00;6.60;94.10
24618;DHT22;12762;51.730;5.356;2024-01-06T02:25:27;6.60;94.10
24618;DHT22;12762;51.730;5.356;2024-01-06T02:27:55;6.50;94.10
24618;DHT22;12762;51.730;5.356;2024-01-06T02:30:22;6.50;94.00
24618;DHT22;12762;51.730;5.356;2024-01-06T02:32:49;6.50;94.00
24618;DHT22;12762;51.730;5.356;2024-01-06T02:35:16;6.50;94.10
24618;DHT22;12762;51.730;5.356;2024-01-06T02:37:42;6.50;94.00
24618;DHT22;12762;51.730;5.356;2024-01-06T02:40:10;6.40;94.00
24618;DHT22;12762;51.730;5.356;2024-01-06T02:42:37;6.40;94.00
24618;DHT22;12762;51.730;5.356;2024-01-06T02:45:04;6.40;94.00
24618;DHT22;12762;51.730;5.356;2024-01-06T02:47:31;6.40;94.00
24618;DHT22;12762;51.730;5.356;2024-01-06T02:49:57;6.40;94.00
24618;DHT22;12762;51.730;5.356;2024-01-06T02:52:24;6.40;94.30
24618;DHT22;12762;51.730;5.356;2024-01-06T02:54:51;6.40;93.90
24618;DHT22;12762;51.730;5.356;2024-01-06T02:57:18;6.40;93.90
24618;DHT22;12762;51.730;5.356;2024-01-06T02:59:45;6.40;93.90
24618;DHT22;12762;51.730;5.356;2024-01-06T03:02:12;6.30;93.80
24618;DHT22;12762;51.730;5.356;2024-01-06T03:04:38;6.30;93.80
24618;DHT22;12762;51.730;5.356;2024-01-06T03:07:05;6.30;93.70
24618;DHT22;12762;51.730;5.356;2024-01-06T03:09:32;6.30;93.80
24618;DHT22;12762;51.730;5.356;2024-01-06T03:11:59;6.30;93.80
24618;DHT22;12762;51.730;5.356;2024-01-06T03:14:26;6.30;93.80
24618;DHT22;12762;51.730;5.356;2024-01-06T03:16:52;6.30;93.80
24618;DHT22;12762;51.730;5.356;2024-01-06T03:19:19;6.20;93.70
24618;DHT22;12762;51.730;5.356;2024-01-06T03:21:49;6.20;93.70
24618;DHT22;12762;51.730;5.356;2024-01-06T03:24:16;6.20;93.60
24618;DHT22;12762;51.730;5.356;2024-01-06T03:26:42;6.20;93.60
24618;DHT22;12762;51.730;5.356;2024-01-06T03:29:09;6.10;93.60
24618;DHT22;12762;51.730;5.356;2024-01-06T03:31:36;6.10;93.60
24618;DHT22;12762;51.730;5.356;2024-01-06T03:34:03;6.10;93.60
24618;DHT22;12762;51.730;5.356;2024-01-06T03:36:30;6.10;93.50
24618;DHT22;12762;51.730;5.356;2024-01-06T03:38:57;6.00;93.60
24618;DHT22;12762;51.730;5.356;2024-01-06T03:41:23;6.00;93.50
24618;DHT22;12762;51.730;5.356;2024-01-06T03:43:50;6.00;93.50
24618;DHT22;12762;51.730;5.356;2024-01-06T03:46:17;6.00;93.50
24618;DHT22;12762;51.730;5.356;2024-01-06T03:48:44;5.90;93.50
24618;DHT22;12762;51.730;5.356;2024-01-06T03:51:12;5.90;93.50
24618;DHT22;12762;51.730;5.356;2024-01-06T03:53:39;5.90;93.50
24618;DHT22;12762;51.730;5.356;2024-01-06T03:56:09;5.90;93.50
24618;DHT22;12762;51.730;5.356;2024-01-06T03:58:37;5.90;93.50
24618;DHT22;12762;51.730;5.356;2024-01-06T04:01:03;5.90;93.50
24618;DHT22;12762;51.730;5.356;2024-01-06T04:03:31;5.90;93.50
24618;DHT22;12762;51.730;5.356;2024-01-06T04:05:57;5.90;93.50
24618;DHT22;12762;51.730;5.356;2024-01-06T04:08:24;5.90;93.50
24618;DHT22;12762;51.730;5.356;2024-01-06T04:10:51;5.90;93.50
24618;DHT22;12762;51.730;5.356;2024-01-06T04:13:18;5.90;93.50
24618;DHT22;12762;51.730;5.356;2024-01-06T04:15:46;5.90;93.50
24618;DHT22;12762;51.730;5.356;2024-01-06T04:18:16;5.90;93.40
24618;DHT22;12762;51.730;5.356;2024-01-06T04:20:46;5.90;93.40
24618;DHT22;12762;51.730;5.356;2024-01-06T04:23:12;5.90;93.40
24618;DHT22;12762;51.730;5.356;2024-01-06T04:25:39;5.90;93.40
24618;DHT22;12762;51.730;5.356;2024-01-06T04:28:06;5.90;93.40
24618;DHT22;12762;51.730;5.356;2024-01-06T04:30:33;5.90;93.40
24618;DHT22;12762;51.730;5.356;2024-01-06T04:33:00;5.90;93.40
24618;DHT22;12762;51.730;5.356;2024-01-06T04:35:27;5.90;93.40
24618;DHT22;12762;51.730;5.356;2024-01-06T04:37:54;5.90;93.30
24618;DHT22;12762;51.730;5.356;2024-01-06T04:40:20;5.90;93.40
24618;DHT22;12762;51.730;5.356;2024-01-06T04:42:47;5.90;93.30
24618;DHT22;12762;51.730;5.356;2024-01-06T04:45:20;5.80;93.30
24618;DHT22;12762;51.730;5.356;2024-01-06T04:47:50;5.80;93.30
24618;DHT22;12762;51.730;5.356;2024-01-06T04:50:17;5.80;93.30
24618;DHT22;12762;51.730;5.356;2024-01-06T04:52:44;5.80;93.30
24618;DHT22;12762;51.730;5.356;2024-01-06T04:55:11;5.80;93.30
24618;DHT22;12762;51.730;5.356;2024-01-06T04:57:38;5.80;93.30
24618;DHT22;12762;51.730;5.356;2024-01-06T05:00:08;5.80;93.30
24618;DHT22;12762;51.730;5.356;2024-01-06T05:02:35;5.80;93.30
24618;DHT22;12762;51.730;5.356;2024-01-06T05:05:02;5.80;93.30
24618;DHT22;12762;51.730;5.356;2024-01-06T05:07:29;5.80;93.20
24618;DHT22;12762;51.730;5.356;2024-01-06T05:09:56;5.80;93.20
24618;DHT22;12762;51.730;5.356;2024-01-06T05:12:23;5.80;93.30
24618;DHT22;12762;51.730;5.356;2024-01-06T05:14:50;5.80;93.20
24618;DHT22;12762;51.730;5.356;2024-01-06T05:17:16;5.80;93.20
24618;DHT22;12762;51.730;5.356;2024-01-06T05:19:43;5.80;93.20
24618;DHT22;12762;51.730;5.356;2024-01-06T05:22:10;5.80;93.20
24618;DHT22;12762;51.730;5.356;2024-01-06T05:24:37;5.80;93.20
24618;DHT22;12762;51.730;5.356;2024-01-06T05:27:04;5.80;93.20
24618;DHT22;12762;51.730;5.356;2024-01-06T05:29:31;5.70;93.10
24618;DHT22;12762;51.730;5.356;2024-01-06T05:31:58;5.70;93.10
24618;DHT22;12762;51.730;5.356;2024-01-06T05:34:24;5.70;93.10
24618;DHT22;12762;51.730;5.356;2024-01-06T05:36:51;5.70;93.10
24618;DHT22;12762;51.730;5.356;2024-01-06T05:39:20;5.70;93.50
24618;DHT22;12762;51.730;5.356;2024-01-06T05:41:46;5.70;93.10
24618;DHT22;12762;51.730;5.356;2024-01-06T05:44:13;5.60;93.00
24618;DHT22;12762;51.730;5.356;2024-01-06T05:46:40;5.60;93.00
24618;DHT22;12762;51.730;5.356;2024-01-06T05:49:07;5.60;93.00
24618;DHT22;12762;51.730;5.356;2024-01-06T05:51:35;5.60;93.10
24618;DHT22;12762;51.730;5.356;2024-01-06T05:54:02;5.60;93.10
24618;DHT22;12762;51.730;5.356;2024-01-06T05:56:29;5.60;93.00
24618;DHT22;12762;51.730;5.356;2024-01-06T05:58:56;5.60;93.00
24618;DHT22;12762;51.730;5.356;2024-01-06T06:01:22;5.60;93.00
24618;DHT22;12762;51.730;5.356;2024-01-06T06:03:53;5.60;93.00
24618;DHT22;12762;51.730;5.356;2024-01-06T06:06:20;5.60;93.00
24618;DHT22;12762;51.730;5.356;2024-01-06T06:08:47;5.60;93.00
24618;DHT22;12762;51.730;5.356;2024-01-06T06:11:15;5.60;93.00
24618;DHT22;12762;51.730;5.356;2024-01-06T06:13:43;5.50;92.90
24618;DHT22;12762;51.730;5.356;2024-01-06T06:16:10;5.50;92.90
24618;DHT22;12762;51.730;5.356;2024-01-06T06:18:42;5.50;92.90
24618;DHT22;12762;51.730;5.356;2024-01-06T06:21:10;5.50;92.90
24618;DHT22;12762;51.730;5.356;2024-01-06T06:23:37;5.50;92.90
24618;DHT22;12762;51.730;5.356;2024-01-06T06:26:05;5.50;92.90
24618;DHT22;12762;51.730;5.356;2024-01-06T06:28:32;5.50;92.90
24618;DHT22;12762;51.730;5.356;2024-01-06T06:30:59;5.50;92.90
24618;DHT22;12762;51.730;5.356;2024-01-06T06:33:26;5.50;92.90
24618;DHT22;12762;51.730;5.356;2024-01-06T06:35:53;5.50;93.00
24618;DHT22;12762;51.730;5.356;2024-01-06T06:38:20;5.50;92.90
24618;DHT22;12762;51.730;5.356;2024-01-06T06:40:48;5.50;92.90
24618;DHT22;12762;51.730;5.356;2024-01-06T06:43:14;5.50;92.90
24618;DHT22;12762;51.730;5.356;2024-01-06T06:45:45;5.40;92.90
24618;DHT22;12762;51.730;5.356;2024-01-06T06:48:12;5.40;92.90
24618;DHT22;12762;51.730;5.356;2024-01-06T06:50:39;5.40;92.90
24618;DHT22;12762;51.730;5.356;2024-01-06T06:53:08;5.40;92.90
24618;DHT22;12762;51.730;5.356;2024-01-06T06:55:35;5.40;92.90
24618;DHT22;12762;51.730;5.356;2024-01-06T06:58:04;5.40;92.90
24618;DHT22;12762;51.730;5.356;2024-01-06T07:00:32;5.40;92.90
24618;DHT22;12762;51.730;5.356;2024-01-06T07:02:59;5.40;92.90
24618;DHT22;12762;51.730;5.356;2024-01-06T07:05:26;5.40;92.90
24618;DHT22;12762;51.730;5.356;2024-01-06T07:07:53;5.40;92.90
24618;DHT22;12762;51.730;5.356;2024-01-06T07:10:22;5.40;92.90
24618;DHT22;12762;51.730;5.356;2024-01-06T07:12:48;5.40;92.90
24618;DHT22;12762;51.730;5.356;2024-01-06T07:15:15;5.40;92.90
24618;DHT22;12762;51.730;5.356;2024-01-06T07:17:42;5.40;92.90
24618;DHT22;12762;51.730;5.356;2024-01-06T07:20:10;5.40;92.90
24618;DHT22;12762;51.730;5.356;2024-01-06T07:22:37;5.40;92.90
24618;DHT22;12762;51.730;5.356;2024-01-06T07:25:04;5.40;92.90
24618;DHT22;12762;51.730;5.356;2024-01-06T07:27:32;5.40;93.00
24618;DHT22;12762;51.730;5.356;2024-01-06T07:29:59;5.40;93.00
24618;DHT22;12762;51.730;5.356;2024-01-06T07:32:31;5.40;92.90
24618;DHT22;12762;51.730;5.356;2024-01-06T07:34:58;5.40;93.00
24618;DHT22;12762;51.730;5.356;2024-01-06T07:37:25;5.40;92.90
24618;DHT22;12762;51.730;5.356;2024-01-06T07:39:55;5.40;93.00
24618;DHT22;12762;51.730;5.356;2024-01-06T07:42:22;5.30;92.90
24618;DHT22;12762;51.730;5.356;2024-01-06T07:44:49;5.30;92.90
24618;DHT22;12762;51.730;5.356;2024-01-06T07:47:16;5.30;92.90
24618;DHT22;12762;51.730;5.356;2024-01-06T07:49:42;5.30;92.90
24618;DHT22;12762;51.730;5.356;2024-01-06T07:52:09;5.30;92.90
24618;DHT22;12762;51.730;5.356;2024-01-06T07:54:36;5.30;93.00
24618;DHT22;12762;51.730;5.356;2024-01-06T07:57:03;5.30;93.00
24618;DHT22;12762;51.730;5.356;2024-01-06T07:59:30;5.30;93.00
24618;DHT22;12762;51.730;5.356;2024-01-06T08:02:00;5.30;93.00
24618;DHT22;12762;51.730;5.356;2024-01-06T08:04:29;5.30;93.00
24618;DHT22;12762;51.730;5.356;2024-01-06T08:06:56;5.30;93.00
24618;DHT22;12762;51.730;5.356;2024-01-06T08:09:23;5.20;92.90
24618;DHT22;12762;51.730;5.356;2024-01-06T08:11:50;5.20;92.90
24618;DHT22;12762;51.730;5.356;2024-01-06T08:14:17;5.20;92.90
24618;DHT22;12762;51.730;5.356;2024-01-06T08:16:44;5.20;92.90
24618;DHT22;12762;51.730;5.356;2024-01-06T08:19:10;5.10;92.90
24618;DHT22;12762;51.730;5.356;2024-01-06T08:21:37;5.10;92.90
24618;DHT22;12762;51.730;5.356;2024-01-06T08:24:04;5.10;92.90
24618;DHT22;12762;51.730;5.356;2024-01-06T08:26:31;5.10;93.00
24618;DHT22;12762;51.730;5.356;2024-01-06T08:28:58;5.10;92.90
24618;DHT22;12762;51.730;5.356;2024-01-06T08:31:24;5.10;92.90
24618;DHT22;12762;51.730;5.356;2024-01-06T08:33:51;5.10;93.00
24618;DHT22;12762;51.730;5.356;2024-01-06T08:36:19;5.10;93.00
24618;DHT22;12762;51.730;5.356;2024-01-06T08:38:46;5.10;93.00
24618;DHT22;12762;51.730;5.356;2024-01-06T08:41:12;5.10;93.00
24618;DHT22;12762;51.730;5.356;2024-01-06T08:43:39;5.10;92.90
24618;DHT22;12762;51.730;5.356;2024-01-06T08:46:06;5.10;92.90
24618;DHT22;12762;51.730;5.356;2024-01-06T08:48:33;5.10;93.30
24618;DHT22;12762;51.730;5.356;2024-01-06T08:51:01;5.10;93.00
24618;DHT22;12762;51.730;5.356;2024-01-06T08:53:28;5.10;93.00
24618;DHT22;12762;51.730;5.356;2024-01-06T08:55:55;5.10;93.00
24618;DHT22;12762;51.730;5.356;2024-01-06T08:58:22;5.10;93.00
24618;DHT22;12762;51.730;5.356;2024-01-06T09:00:49;5.10;92.90
24618;DHT22;12762;51.730;5.356;2024-01-06T09:03:17;5.10;92.90
24618;DHT22;12762;51.730;5.356;2024-01-06T09:05:44;5.10;92.90
24618;DHT22;12762;51.730;5.356;2024-01-06T09:08:11;5.10;92.80
24618;DHT22;12762;51.730;5.356;2024-01-06T09:10:38;5.10;92.80
24618;DHT22;12762;51.730;5.356;2024-01-06T09:13:04;5.10;92.80
24618;DHT22;12762;51.730;5.356;2024-01-06T09:15:31;5.10;92.80
24618;DHT22;12762;51.730;5.356;2024-01-06T09:18:01;5.10;92.80
24618;DHT22;12762;51.730;5.356;2024-01-06T09:20:29;5.10;92.80
24618;DHT22;12762;51.730;5.356;2024-01-06T09:22:56;5.10;92.80
24618;DHT22;12762;51.730;5.356;2024-01-06T09:25:25;5.10;92.80
24618;DHT22;12762;51.730;5.356;2024-01-06T09:27:52;5.10;92.70
24618;DHT22;12762;51.730;5.356;2024-01-06T09:30:20;5.10;92.70
24618;DHT22;12762;51.730;5.356;2024-01-06T09:32:47;5.10;92.70
24618;DHT22;12762;51.730;5.356;2024-01-06T09:35:14;5.10;92.70
24618;DHT22;12762;51.730;5.356;2024-01-06T09:37:41;5.10;92.70
24618;DHT22;12762;51.730;5.356;2024-01-06T09:40:11;5.10;92.70
24618;DHT22;12762;51.730;5.356;2024-01-06T09:42:40;5.10;92.70
24618;DHT22;12762;51.730;5.356;2024-01-06T09:45:10;5.10;92.70
24618;DHT22;12762;51.730;5.356;2024-01-06T09:47:40;5.10;92.70
24618;DHT22;12762;51.730;5.356;2024-01-06T09:50:10;5.10;92.70
24618;DHT22;12762;51.730;5.356;2024-01-06T09:52:41;5.10;92.70
24618;DHT22;12762;51.730;5.356;2024-01-06T09:55:11;5.10;92.70
24618;DHT22;12762;51.730;5.356;2024-01-06T09:57:41;5.20;92.70
24618;DHT22;12762;51.730;5.356;2024-01-06T10:00:09;5.20;92.60
24618;DHT22;12762;51.730;5.356;2024-01-06T10:02:39;5.20;92.60
24618;DHT22;12762;51.730;5.356;2024-01-06T10:05:07;5.10;92.50
24618;DHT22;12762;51.730;5.356;2024-01-06T10:07:34;5.20;92.60
24618;DHT22;12762;51.730;5.356;2024-01-06T10:10:01;5.20;92.60
24618;DHT22;12762;51.730;5.356;2024-01-06T10:12:28;5.20;92.60
24618;DHT22;12762;51.730;5.356;2024-01-06T10:14:58;5.20;92.60
24618;DHT22;12762;51.730;5.356;2024-01-06T10:17:25;5.20;92.60
24618;DHT22;12762;51.730;5.356;2024-01-06T10:19:57;5.20;92.60
24618;DHT22;12762;51.730;5.356;2024-01-06T10:22:26;5.20;92.50
24618;DHT22;12762;51.730;5.356;2024-01-06T10:24:54;5.30;92.50
24618;DHT22;12762;51.730;5.356;2024-01-06T10:27:21;5.20;92.40
24618;DHT22;12762;51.730;5.356;2024-01-06T10:29:48;5.30;92.50
24618;DHT22;12762;51.730;5.356;2024-01-06T10:32:16;5.30;92.50
24618;DHT22;12762;51.730;5.356;2024-01-06T10:34:44;5.30;92.50
24618;DHT22;12762;51.730;5.356;2024-01-06T10:37:11;5.30;92.50
24618;DHT22;12762;51.730;5.356;2024-01-06T10:39:38;5.40;92.40
24618;DHT22;12762;51.730;5.356;2024-01-06T10:42:06;5.40;92.40
24618;DHT22;12762;51.730;5.356;2024-01-06T10:44:34;5.40;92.40
24618;DHT22;12762;51.730;5.356;2024-01-06T10:47:04;5.40;92.40
24618;DHT22;12762;51.730;5.356;2024-01-06T10:49:33;5.40;92.30
24618;DHT22;12762;51.730;5.356;2024-01-06T10:52:04;5.40;92.30
24618;DHT22;12762;51.730;5.356;2024-01-06T10:54:33;5.50;92.40
24618;DHT22;12762;51.730;5.356;2024-01-06T10:57:03;5.50;92.40
24618;DHT22;12762;51.730;5.356;2024-01-06T10:59:32;5.50;92.40
24618;DHT22;12762;51.730;5.356;2024-01-06T11:02:00;5.60;92.40
24618;DHT22;12762;51.730;5.356;2024-01-06T11:04:28;5.60;92.30
24618;DHT22;12762;51.730;5.356;2024-01-06T11:06:58;5.60;92.30
24618;DHT22;12762;51.730;5.356;2024-01-06T11:09:29;5.60;92.20
24618;DHT22;12762;51.730;5.356;2024-01-06T11:11:58;5.60;92.30
24618;DHT22;12762;51.730;5.356;2024-01-06T11:14:27;5.60;92.30
24618;DHT22;12762;51.730;5.356;2024-01-06T11:16:59;5.60;92.20
24618;DHT22;12762;51.730;5.356;2024-01-06T11:22:29;5.70;92.20
24618;DHT22;12762;51.730;5.356;2024-01-06T11:25:06;5.60;92.10
24618;DHT22;12762;51.730;5.356;2024-01-06T11:27:37;5.60;92.10
24618;DHT22;12762;51.730;5.356;2024-01-06T11:30:05;5.60;92.10
24618;DHT22;12762;51.730;5.356;2024-01-06T11:32:36;5.60;92.10
24618;DHT22;12762;51.730;5.356;2024-01-06T11:35:10;5.60;92.00
24618;DHT22;12762;51.730;5.356;2024-01-06T11:37:51;5.60;92.00
24618;DHT22;12762;51.730;5.356;2024-01-06T11:45:25;5.60;92.00
24618;DHT22;12762;51.730;5.356;2024-01-06T11:47:56;5.60;92.00
24618;DHT22;12762;51.730;5.356;2024-01-06T11:50:26;5.60;92.00
24618;DHT22;12762;51.730;5.356;2024-01-06T11:52:55;5.60;91.90
24618;DHT22;12762;51.730;5.356;2024-01-06T11:55:21;5.60;91.90
24618;DHT22;12762;51.730;5.356;2024-01-06T11:57:48;5.50;91.90
24618;DHT22;12762;51.730;5.356;2024-01-06T12:00:19;5.50;91.90
24618;DHT22;12762;51.730;5.356;2024-01-06T12:02:46;5.50;91.80
24618;DHT22;12762;51.730;5.356;2024-01-06T12:05:17;5.50;91.80
24618;DHT22;12762;51.730;5.356;2024-01-06T12:07:59;5.50;91.90
24618;DHT22;12762;51.730;5.356;2024-01-06T12:10:28;5.50;91.90
24618;DHT22;12762;51.730;5.356;2024-01-06T12:13:05;5.50;91.90
24618;DHT22;12762;51.730;5.356;2024-01-06T12:15:34;5.50;91.90
24618;DHT22;12762;51.730;5.356;2024-01-06T12:18:04;5.50;91.90
24618;DHT22;12762;51.730;5.356;2024-01-06T12:20:32;5.60;91.90
24618;DHT22;12762;51.730;5.356;2024-01-06T12:22:59;5.60;91.90
24618;DHT22;12762;51.730;5.356;2024-01-06T12:25:27;5.60;91.90
24618;DHT22;12762;51.730;5.356;2024-01-06T12:27:55;5.60;91.80
24618;DHT22;12762;51.730;5.356;2024-01-06T12:30:25;5.60;91.70
24618;DHT22;12762;51.730;5.356;2024-01-06T12:32:53;5.60;91.80
24618;DHT22;12762;51.730;5.356;2024-01-06T12:35:21;5.60;91.70
24618;DHT22;12762;51.730;5.356;2024-01-06T12:37:48;5.60;91.80
24618;DHT22;12762;51.730;5.356;2024-01-06T12:40:19;5.60;91.80
24618;DHT22;12762;51.730;5.356;2024-01-06T12:42:46;5.60;91.80
24618;DHT22;12762;51.730;5.356;2024-01-06T12:45:13;5.60;91.70
24618;DHT22;12762;51.730;5.356;2024-01-06T12:47:42;5.60;92.00
24618;DHT22;12762;51.730;5.356;2024-01-06T12:50:09;5.60;91.60
24618;DHT22;12762;51.730;5.356;2024-01-06T12:52:36;5.60;91.60
24618;DHT22;12762;51.730;5.356;2024-01-06T12:55:06;5.50;91.50
24618;DHT22;12762;51.730;5.356;2024-01-06T12:57:33;5.50;91.50
24618;DHT22;12762;51.730;5.356;2024-01-06T13:00:00;5.50;91.50
24618;DHT22;12762;51.730;5.356;2024-01-06T13:02:35;5.50;91.50
24618;DHT22;12762;51.730;5.356;2024-01-06T13:05:04;5.50;91.50
24618;DHT22;12762;51.730;5.356;2024-01-06T13:07:31;5.40;91.40
24618;DHT22;12762;51.730;5.356;2024-01-06T13:09:58;5.40;91.40
24618;DHT22;12762;51.730;5.356;2024-01-06T13:12:26;5.40;91.50
24618;DHT22;12762;51.730;5.356;2024-01-06T13:14:55;5.50;91.50
24618;DHT22;12762;51.730;5.356;2024-01-06T13:17:22;5.50;91.50
24618;DHT22;12762;51.730;5.356;2024-01-06T13:19:49;5.50;91.50
24618;DHT22;12762;51.730;5.356;2024-01-06T13:22:16;5.50;91.40
24618;DHT22;12762;51.730;5.356;2024-01-06T13:24:46;5.50;91.40
24618;DHT22;12762;51.730;5.356;2024-01-06T13:27:15;5.50;91.40
24618;DHT22;12762;51.730;5.356;2024-01-06T13:29:41;5.50;91.40
24618;DHT22;12762;51.730;5.356;2024-01-06T13:32:08;5.50;91.40
24618;DHT22;12762;51.730;5.356;2024-01-06T13:34:37;5.50;91.40
24618;DHT22;12762;51.730;5.356;2024-01-06T13:37:04;5.50;91.30
24618;DHT22;12762;51.730;5.356;2024-01-06T13:39:33;5.50;91.40
24618;DHT22;12762;51.730;5.356;2024-01-06T13:42:00;5.50;91.40
24618;DHT22;12762;51.730;5.356;2024-01-06T13:44:27;5.50;91.30
24618;DHT22;12762;51.730;5.356;2024-01-06T13:46:54;5.50;91.30
24618;DHT22;12762;51.730;5.356;2024-01-06T13:49:22;5.40;91.10
24618;DHT22;12762;51.730;5.356;2024-01-06T13:51:52;5.40;91.20
24618;DHT22;12762;51.730;5.356;2024-01-06T13:54:19;5.40;91.20
24618;DHT22;12762;51.730;5.356;2024-01-06T13:56:46;5.40;91.30
24618;DHT22;12762;51.730;5.356;2024-01-06T13:59:13;5.30;91.20
24618;DHT22;12762;51.730;5.356;2024-01-06T14:01:40;5.30;91.30
24618;DHT22;12762;51.730;5.356;2024-01-06T14:04:07;5.30;91.30
24618;DHT22;12762;51.730;5.356;2024-01-06T14:06:34;5.30;91.30
24618;DHT22;12762;51.730;5.356;2024-01-06T14:09:01;5.30;91.30
24618;DHT22;12762;51.730;5.356;2024-01-06T14:11:28;5.30;91.30
24618;DHT22;12762;51.730;5.356;2024-01-06T14:13:58;5.30;91.30
24618;DHT22;12762;51.730;5.356;2024-01-06T14:16:28;5.30;91.30
24618;DHT22;12762;51.730;5.356;2024-01-06T14:18:54;5.20;91.30
24618;DHT22;12762;51.730;5.356;2024-01-06T14:21:22;5.20;91.30
24618;DHT22;12762;51.730;5.356;2024-01-06T14:23:49;5.20;91.30
24618;DHT22;12762;51.730;5.356;2024-01-06T14:26:21;5.20;91.40
24618;DHT22;12762;51.730;5.356;2024-01-06T14:28:50;5.20;91.40
24618;DHT22;12762;51.730;5.356;2024-01-06T14:31:17;5.20;91.40
24618;DHT22;12762;51.730;5.356;2024-01-06T14:33:45;5.10;91.40
24618;DHT22;12762;51.730;5.356;2024-01-06T14:36:12;5.10;91.40
24618;DHT22;12762;51.730;5.356;2024-01-06T14:38:39;5.10;91.40
24618;DHT22;12762;51.730;5.356;2024-01-06T14:41:06;5.10;91.40
24618;DHT22;12762;51.730;5.356;2024-01-06T14:43:36;5.10;91.50
24618;DHT22;12762;51.730;5.356;2024-01-06T14:46:02;5.10;91.50
24618;DHT22;12762;51.730;5.356;2024-01-06T14:48:29;5.00;91.50
24618;DHT22;12762;51.730;5.356;2024-01-06T14:50:56;5.00;91.50
24618;DHT22;12762;51.730;5.356;2024-01-06T14:53:23;5.00;91.50
24618;DHT22;12762;51.730;5.356;2024-01-06T14:55:50;5.00;91.50
24618;DHT22;12762;51.730;5.356;2024-01-06T14:58:17;5.00;91.50
24618;DHT22;12762;51.730;5.356;2024-01-06T15:00:43;5.00;91.50
24618;DHT22;12762;51.730;5.356;2024-01-06T15:03:14;5.00;91.50
24618;DHT22;12762;51.730;5.356;2024-01-06T15:05:41;5.00;91.60
24618;DHT22;12762;51.730;5.356;2024-01-06T15:08:08;5.00;91.50
24618;DHT22;12762;51.730;5.356;2024-01-06T15:10:34;4.90;91.50
24618;DHT22;12762;51.730;5.356;2024-01-06T15:13:01;4.90;91.50
24618;DHT22;12762;51.730;5.356;2024-01-06T15:15:30;4.90;91.50
24618;DHT22;12762;51.730;5.356;2024-01-06T15:17:57;4.90;91.50
24618;DHT22;12762;51.730;5.356;2024-01-06T15:20:24;4.90;91.50
24618;DHT22;12762;51.730;5.356;2024-01-06T15:22:51;4.80;91.50
24618;DHT22;12762;51.730;5.356;2024-01-06T15:25:17;4.80;91.50
24618;DHT22;12762;51.730;5.356;2024-01-06T15:27:45;4.80;91.50
24618;DHT22;12762;51.730;5.356;2024-01-06T15:30:16;4.80;91.40
24618;DHT22;12762;51.730;5.356;2024-01-06T15:32:45;4.80;91.40
24618;DHT22;12762;51.730;5.356;2024-01-06T15:35:12;4.80;91.50
24618;DHT22;12762;51.730;5.356;2024-01-06T15:37:39;4.80;91.40
24618;DHT22;12762;51.730;5.356;2024-01-06T15:40:07;4.80;91.40
24618;DHT22;12762;51.730;5.356;2024-01-06T15:42:37;4.80;91.40
24618;DHT22;12762;51.730;5.356;2024-01-06T15:45:05;4.80;91.50
24618;DHT22;12762;51.730;5.356;2024-01-06T15:47:32;4.80;91.50
24618;DHT22;12762;51.730;5.356;2024-01-06T15:49:59;4.80;91.50
24618;DHT22;12762;51.730;5.356;2024-01-06T15:52:26;4.80;91.50
24618;DHT22;12762;51.730;5.356;2024-01-06T15:54:53;4.80;91.40